Time;durP1;ratioP1;P1;durP2;ratioP2;P2;SDS_P1;SDS_P2;PMS_P1;PMS_P2;Temp;Humidity;BMP_temperature;BMP_pressure;BME280_temperature;BME280_humidity;BME280_pressure;Samples;Min_cycle;Max_cycle;Signal;HPM_P1;HPM_P2
2021/05/05 00:00:25;;;;;;;45.00;9.93;;;8.00;99.90;;;;;;5083592;28;20486;-84
2021/05/05 00:02:53;;;;;;;43.73;7.53;;;7.90;99.90;;;;;;5081002;28;20819;-82
2021/05/05 00:05:19;;;;;;;43.40;7.43;;;7.90;99.90;;;;;;5080976;28;20530;-86
2021/05/05 00:07:46;;;;;;;42.33;5.93;;;7.90;99.90;;;;;;5081336;28;20588;-82
2021/05/05 00:10:14;;;;;;;39.87;3.47;;;7.90;99.90;;;;;;5081897;28;20447;-82
2021/05/05 00:12:42;;;;;;;40.83;4.90;;;8.00;99.90;;;;;;5082332;28;20451;-85
2021/05/05 00:15:11;;;;;;;43.27;12.20;;;7.90;99.90;;;;;;5080859;28;20478;-85
2021/05/05 00:17:38;;;;;;;35.07;2.83;;;7.90;99.90;;;;;;5081297;28;20443;-84
2021/05/05 00:20:06;;;;;;;38.50;4.20;;;8.00;99.90;;;;;;5080240;28;20450;-85
2021/05/05 00:22:32;;;;;;;36.00;2.30;;;8.00;99.90;;;;;;5074589;28;20479;-86
2021/05/05 00:24:59;;;;;;;67.87;59.23;;;8.10;99.90;;;;;;5080918;28;20554;-84
2021/05/05 00:27:25;;;;;;;41.47;3.00;;;8.00;99.90;;;;;;5081571;28;20952;-83
2021/05/05 00:29:53;;;;;;;38.97;10.60;;;8.10;99.90;;;;;;5081617;28;20520;-82
2021/05/05 00:32:21;;;;;;;41.57;6.00;;;8.00;99.90;;;;;;5081785;28;20557;-83
2021/05/05 00:34:54;;;;;;;52.47;30.50;;;7.90;99.90;;;;;;5081581;28;20800;-84
2021/05/05 00:37:21;;;;;;;39.37;5.57;;;7.90;99.90;;;;;;5079981;28;20503;-85
2021/05/05 00:39:47;;;;;;;39.40;4.23;;;7.90;99.90;;;;;;5080954;28;20498;-82
2021/05/05 00:42:13;;;;;;;40.80;7.70;;;7.80;99.90;;;;;;5079534;28;20478;-80
2021/05/05 00:44:40;;;;;;;39.43;4.50;;;7.80;99.90;;;;;;5083294;28;20507;-83
2021/05/05 00:47:08;;;;;;;50.40;25.17;;;7.80;99.90;;;;;;5085445;28;20459;-81
2021/05/05 00:49:35;;;;;;;128.67;117.30;;;7.80;99.90;;;;;;5089827;28;20451;-84
2021/05/05 00:52:01;;;;;;;43.67;8.60;;;7.70;99.90;;;;;;5082040;28;20475;-82
2021/05/05 00:54:27;;;;;;;41.70;5.33;;;7.70;99.90;;;;;;5088233;28;20538;-82
2021/05/05 00:56:54;;;;;;;41.57;4.40;;;7.70;99.90;;;;;;5091046;28;20518;-84
2021/05/05 00:59:23;;;;;;;38.03;2.90;;;7.60;99.90;;;;;;5090482;28;20482;-85
2021/05/05 01:01:49;;;;;;;145.60;134.73;;;7.50;99.90;;;;;;5088840;28;20492;-80
2021/05/05 01:04:16;;;;;;;46.80;18.83;;;7.50;99.90;;;;;;5088224;28;20550;-79
2021/05/05 01:06:47;;;;;;;40.20;4.93;;;7.50;99.90;;;;;;5067282;28;20642;-82
2021/05/05 01:09:15;;;;;;;37.37;6.87;;;7.50;99.90;;;;;;5080646;28;20545;-79
2021/05/05 01:11:43;;;;;;;40.43;3.43;;;7.70;99.90;;;;;;5085273;28;20475;-83
2021/05/05 01:14:10;;;;;;;39.13;3.67;;;7.70;99.90;;;;;;5087705;28;20461;-84
2021/05/05 01:16:37;;;;;;;36.90;3.50;;;7.70;99.90;;;;;;5085278;28;20447;-83
2021/05/05 01:19:04;;;;;;;38.60;5.07;;;7.70;99.90;;;;;;5087082;28;20499;-82
2021/05/05 01:21:37;;;;;;;52.43;34.57;;;7.50;99.90;;;;;;5087698;28;20535;-77
2021/05/05 01:24:05;;;;;;;37.07;7.10;;;7.40;99.90;;;;;;5077784;28;20486;-81
2021/05/05 01:26:32;;;;;;;38.67;3.80;;;7.30;99.90;;;;;;5087630;28;20486;-84
2021/05/05 01:29:01;;;;;;;33.47;2.50;;;7.20;99.90;;;;;;5085784;28;20478;-84
2021/05/05 01:31:28;;;;;;;33.00;3.03;;;7.10;99.90;;;;;;5090937;28;20474;-81
2021/05/05 01:33:55;;;;;;;32.30;3.03;;;6.90;99.90;;;;;;5088490;28;20514;-83
2021/05/05 01:36:24;;;;;;;37.47;13.13;;;6.90;99.90;;;;;;5089620;28;20461;-83
2021/05/05 01:38:51;;;;;;;35.97;5.53;;;7.00;99.90;;;;;;5088008;28;20461;-81
2021/05/05 01:41:20;;;;;;;36.10;2.50;;;7.10;99.90;;;;;;5091567;28;20499;-85
2021/05/05 01:43:47;;;;;;;37.47;5.03;;;7.10;99.90;;;;;;5091402;28;20474;-85
2021/05/05 01:46:14;;;;;;;38.23;4.63;;;7.20;99.90;;;;;;5090050;28;20822;-79
2021/05/05 01:48:40;;;;;;;33.97;2.23;;;7.20;99.90;;;;;;5091102;28;20468;-83
2021/05/05 01:51:23;;;;;;;35.27;1.73;;;7.30;99.90;;;;;;5088702;28;20495;-81
2021/05/05 01:54:05;;;;;;;36.87;7.27;;;7.40;99.90;;;;;;5094902;28;20441;-84
2021/05/05 01:56:32;;;;;;;33.60;2.73;;;7.50;99.90;;;;;;5092285;28;20486;-85
2021/05/05 01:59:00;;;;;;;32.83;2.67;;;7.50;99.90;;;;;;5092193;28;20450;-83
2021/05/05 02:01:27;;;;;;;36.50;2.93;;;7.50;99.90;;;;;;5092742;28;20488;-82
2021/05/05 02:03:58;;;;;;;37.13;2.80;;;7.50;99.90;;;;;;5094399;28;20555;-84
2021/05/05 02:06:24;;;;;;;37.30;2.97;;;7.60;99.90;;;;;;5093101;28;20458;-80
2021/05/05 02:09:00;;;;;;;38.87;6.20;;;7.50;99.90;;;;;;5090408;28;20509;-82
2021/05/05 02:11:29;;;;;;;34.33;4.17;;;7.60;99.90;;;;;;5083915;28;20565;-79
2021/05/05 02:14:00;;;;;;;34.67;4.70;;;7.50;99.90;;;;;;5082587;28;20483;-83
2021/05/05 02:16:49;;;;;;;;;;;;;;;;;;;;;
2021/05/05 02:19:17;;;;;;;30.37;3.03;;;7.40;99.90;;;;;;5086354;28;20489;-83
2021/05/05 02:21:43;;;;;;;34.07;3.37;;;7.30;99.90;;;;;;5088974;28;20482;-84
2021/05/05 02:24:13;;;;;;;30.60;4.07;;;7.30;99.90;;;;;;5086769;28;20543;-82
2021/05/05 02:26:39;;;;;;;51.13;34.13;;;7.30;99.90;;;;;;5088812;28;20521;-80
2021/05/05 02:29:07;;;;;;;41.70;8.00;;;7.20;99.90;;;;;;5089791;28;20486;-85
2021/05/05 02:31:34;;;;;;;38.57;5.37;;;7.10;99.90;;;;;;5088483;28;20466;-86
2021/05/05 02:34:00;;;;;;;31.90;3.73;;;7.10;99.90;;;;;;5091224;28;20474;-81
2021/05/05 02:36:29;;;;;;;37.30;7.13;;;7.00;99.90;;;;;;5088884;28;20466;-83
2021/05/05 02:38:56;;;;;;;36.20;6.00;;;7.00;99.90;;;;;;5088631;28;20450;-85
2021/05/05 02:41:23;;;;;;;37.23;5.60;;;7.00;99.90;;;;;;5088714;28;20500;-85
2021/05/05 02:44:00;;;;;;;35.67;7.77;;;7.10;99.90;;;;;;5090065;28;20471;-80
2021/05/05 02:46:27;;;;;;;30.77;5.20;;;7.00;99.90;;;;;;5085820;28;20430;-83
2021/05/05 02:49:03;;;;;;;34.97;5.90;;;7.00;99.90;;;;;;5082982;28;20451;-81
2021/05/05 02:55:15;;;;;;;37.40;4.70;;;6.80;99.90;;;;;;4901358;29;20447;-79
2021/05/05 02:57:42;;;;;;;35.30;3.40;;;6.80;99.90;;;;;;5056979;28;20460;-85
2021/05/05 03:03:34;;;;;;;32.77;8.20;;;6.70;99.90;;;;;;4904881;28;20451;-82
2021/05/05 03:06:01;;;;;;;32.70;7.83;;;6.70;99.90;;;;;;4994059;28;20455;-79
2021/05/05 03:08:31;;;;;;;35.10;3.77;;;6.80;99.90;;;;;;5075257;28;20504;-81
2021/05/05 03:11:24;;;;;;;32.97;3.43;;;6.80;99.90;;;;;;5086889;28;20623;-80
2021/05/05 03:14:00;;;;;;;42.93;25.03;;;6.80;99.90;;;;;;5042748;28;20452;-82
2021/05/05 03:17:00;;;;;;;33.57;4.00;;;6.90;99.90;;;;;;5083504;28;20485;-83
2021/05/05 03:20:00;;;;;;;31.80;2.83;;;6.90;99.90;;;;;;5084861;28;20460;-82
2021/05/05 03:26:12;;;;;;;;;;;;;;;;;;;;;
2021/05/05 03:28:46;;;;;;;33.20;3.40;;;6.90;99.90;;;;;;4968487;28;20518;-82
2021/05/05 03:31:22;;;;;;;33.30;6.50;;;6.90;99.90;;;;;;5032079;28;20514;-81
2021/05/05 03:33:48;;;;;;;34.80;3.50;;;6.80;99.90;;;;;;5074261;28;20453;-82
2021/05/05 03:36:14;;;;;;;37.37;6.73;;;6.70;99.90;;;;;;5087751;28;20459;-83
2021/05/05 03:38:41;;;;;;;38.10;5.47;;;6.70;99.90;;;;;;5084741;28;20607;-83
2021/05/05 03:41:08;;;;;;;37.90;10.20;;;6.60;99.90;;;;;;5081452;28;20445;-82
2021/05/05 03:43:36;;;;;;;30.87;4.53;;;6.50;99.90;;;;;;5079894;28;20454;-83
2021/05/05 03:46:04;;;;;;;33.53;4.27;;;6.40;99.90;;;;;;5079334;28;20541;-84
2021/05/05 03:48:31;;;;;;;30.63;11.90;;;6.40;99.90;;;;;;5080247;28;20534;-84
2021/05/05 03:50:58;;;;;;;38.67;6.10;;;6.30;99.90;;;;;;5082557;28;20494;-84
2021/05/05 03:53:25;;;;;;;36.90;6.10;;;6.30;99.90;;;;;;5082369;28;20447;-82
2021/05/05 03:55:51;;;;;;;32.80;5.70;;;6.40;99.90;;;;;;5083291;28;20439;-82
2021/05/05 03:58:19;;;;;;;84.93;35.77;;;6.50;99.90;;;;;;5080866;28;20457;-84
2021/05/05 04:00:45;;;;;;;53.77;17.33;;;6.60;99.90;;;;;;5084774;28;20466;-81
2021/05/05 04:03:11;;;;;;;38.10;6.97;;;6.70;99.90;;;;;;5086370;28;20454;-81
2021/05/05 04:05:38;;;;;;;30.83;4.80;;;6.80;99.90;;;;;;5077455;28;20577;-81
2021/05/05 04:08:05;;;;;;;37.43;6.80;;;6.80;99.90;;;;;;5080381;28;20447;-84
2021/05/05 04:10:31;;;;;;;34.20;6.63;;;6.90;99.90;;;;;;5080477;28;21094;-82
2021/05/05 04:12:58;;;;;;;33.73;7.60;;;7.00;99.90;;;;;;5145127;22;20507;-83
2021/05/05 04:15:25;;;;;;;35.50;6.17;;;7.00;99.90;;;;;;5134805;28;20428;-83
2021/05/05 04:17:54;;;;;;;37.97;6.30;;;7.10;99.90;;;;;;5134301;28;20457;-82
2021/05/05 04:20:21;;;;;;;32.90;9.10;;;7.00;99.90;;;;;;5133752;28;20449;-83
2021/05/05 04:22:48;;;;;;;41.10;9.60;;;7.10;99.90;;;;;;5115376;28;20458;-80
2021/05/05 04:25:17;;;;;;;494.75;467.48;;;7.10;99.90;;;;;;5104796;28;20563;-78
2021/05/05 04:27:44;;;;;;;46.30;18.47;;;7.10;99.90;;;;;;5096663;28;20215;-81
2021/05/05 04:30:13;;;;;;;38.47;11.77;;;7.40;99.90;;;;;;5092522;28;20450;-85
2021/05/05 04:32:40;;;;;;;46.03;11.90;;;7.70;99.90;;;;;;5101409;28;20466;-85
2021/05/05 04:35:08;;;;;;;39.50;6.13;;;8.10;99.90;;;;;;5097318;28;20470;-82
2021/05/05 04:37:35;;;;;;;40.80;7.87;;;8.20;99.90;;;;;;5079610;28;20459;-84
2021/05/05 04:40:02;;;;;;;37.27;6.83;;;8.10;99.90;;;;;;5096675;28;20454;-81
2021/05/05 04:42:28;;;;;;;32.33;5.40;;;7.90;99.90;;;;;;5095634;28;21006;-85
2021/05/05 04:44:54;;;;;;;37.40;5.70;;;7.90;99.90;;;;;;5089854;28;20532;-84
2021/05/05 04:47:21;;;;;;;35.90;6.30;;;8.00;99.90;;;;;;5092849;28;20541;-84
2021/05/05 04:49:48;;;;;;;34.03;5.07;;;8.00;99.90;;;;;;5098477;28;20452;-82
2021/05/05 04:52:14;;;;;;;35.80;5.57;;;7.90;99.90;;;;;;5095035;28;20480;-85
2021/05/05 04:54:40;;;;;;;33.47;5.63;;;7.80;99.90;;;;;;5093079;28;20462;-85
2021/05/05 04:57:07;;;;;;;33.67;6.23;;;7.70;99.90;;;;;;5088441;28;20976;-85
2021/05/05 04:59:36;;;;;;;37.00;7.90;;;7.70;99.90;;;;;;5096822;28;20544;-81
2021/05/05 05:04:35;;;;;;;36.27;6.30;;;7.60;99.90;;;;;;5118302;28;20489;-84
2021/05/05 05:07:03;;;;;;;38.30;8.90;;;7.70;99.90;;;;;;5123039;28;20474;-84
2021/05/05 05:09:29;;;;;;;35.00;7.80;;;7.70;99.90;;;;;;5123040;28;20961;-84
2021/05/05 05:11:55;;;;;;;39.70;9.03;;;7.70;99.90;;;;;;5106646;28;20466;-85
2021/05/05 05:14:25;;;;;;;35.60;6.33;;;7.80;99.90;;;;;;5102477;28;20485;-80
2021/05/05 05:16:52;;;;;;;38.07;8.37;;;8.00;99.90;;;;;;5101215;28;20450;-85
2021/05/05 05:19:18;;;;;;;35.10;7.73;;;8.10;99.90;;;;;;5084273;28;20455;-81
2021/05/05 05:21:44;;;;;;;36.40;8.50;;;8.10;99.90;;;;;;5085782;28;20472;-85
2021/05/05 05:24:12;;;;;;;38.40;8.23;;;8.20;99.90;;;;;;5091476;28;20481;-85
2021/05/05 05:26:39;;;;;;;35.77;9.57;;;8.10;99.90;;;;;;5100563;28;20540;-84
2021/05/05 05:29:05;;;;;;;39.63;7.93;;;8.00;99.90;;;;;;5101252;28;20462;-84
2021/05/05 05:31:31;;;;;;;38.60;12.50;;;7.90;99.90;;;;;;5082169;28;20479;-84
2021/05/05 05:33:58;;;;;;;38.60;11.20;;;7.90;99.90;;;;;;5080191;28;20538;-84
2021/05/05 05:36:24;;;;;;;38.07;9.00;;;7.90;99.90;;;;;;5092678;28;20450;-81
2021/05/05 05:38:50;;;;;;;36.60;9.10;;;8.00;99.90;;;;;;5100241;28;20533;-84
2021/05/05 05:41:18;;;;;;;37.10;7.97;;;8.00;99.90;;;;;;5085875;28;20558;-84
2021/05/05 05:43:44;;;;;;;38.70;7.10;;;8.30;99.90;;;;;;5096093;28;21013;-85
2021/05/05 05:46:11;;;;;;;43.17;11.50;;;8.50;99.90;;;;;;5096248;28;20560;-85
2021/05/05 05:48:38;;;;;;;42.10;9.50;;;8.50;99.90;;;;;;5102627;28;20454;-82
2021/05/05 05:51:04;;;;;;;45.07;9.40;;;8.50;99.90;;;;;;5102065;28;20454;-84
2021/05/05 05:53:31;;;;;;;40.23;7.60;;;8.40;99.90;;;;;;5101651;28;20454;-85
2021/05/05 05:55:57;;;;;;;34.70;7.97;;;8.20;99.90;;;;;;5095688;28;20928;-85
2021/05/05 05:58:24;;;;;;;39.77;7.40;;;8.00;99.90;;;;;;5094178;28;20460;-84
2021/05/05 06:00:51;;;;;;;45.27;27.97;;;7.80;99.90;;;;;;5102724;28;20453;-84
2021/05/05 06:03:17;;;;;;;46.70;26.53;;;7.70;99.90;;;;;;5101724;28;20563;-84
2021/05/05 06:05:43;;;;;;;35.33;6.03;;;7.50;99.90;;;;;;5102457;28;21013;-85
2021/05/05 06:08:10;;;;;;;36.50;6.13;;;7.30;99.90;;;;;;5102891;28;20454;-85
2021/05/05 06:10:36;;;;;;;31.00;4.43;;;7.00;99.90;;;;;;5100684;28;20449;-85
2021/05/05 06:13:04;;;;;;;29.87;3.63;;;6.90;99.90;;;;;;5099662;28;20472;-85
2021/05/05 06:15:31;;;;;;;34.80;6.33;;;6.80;99.90;;;;;;5098587;28;20454;-86
2021/05/05 06:17:58;;;;;;;36.47;7.37;;;6.70;99.90;;;;;;5091860;28;20468;-87
2021/05/05 06:20:24;;;;;;;34.57;5.60;;;6.60;99.90;;;;;;5097050;28;20537;-84
2021/05/05 06:22:51;;;;;;;31.17;6.03;;;6.50;99.90;;;;;;5099060;28;20533;-85
2021/05/05 06:25:17;;;;;;;32.17;5.90;;;6.50;99.90;;;;;;5102186;28;20841;-85
2021/05/05 06:27:44;;;;;;;36.93;15.93;;;6.40;99.90;;;;;;5101470;28;20945;-85
2021/05/05 06:30:16;;;;;;;28.37;5.03;;;6.40;99.90;;;;;;5095010;28;20456;-85
2021/05/05 06:32:43;;;;;;;27.03;5.00;;;6.30;99.90;;;;;;5098676;28;20498;-84
2021/05/05 06:35:11;;;;;;;24.77;4.50;;;6.20;99.90;;;;;;5099420;28;20473;-85
2021/05/05 06:37:37;;;;;;;31.43;5.67;;;6.20;99.90;;;;;;5101872;28;20436;-85
2021/05/05 06:40:05;;;;;;;33.57;7.20;;;6.10;99.90;;;;;;5102389;28;20533;-84
2021/05/05 06:42:33;;;;;;;25.23;6.83;;;6.20;99.90;;;;;;5098129;28;20534;-84
2021/05/05 06:44:59;;;;;;;34.53;9.33;;;6.20;99.90;;;;;;5097431;28;20486;-85
2021/05/05 06:47:29;;;;;;;31.80;11.87;;;6.20;99.90;;;;;;5096014;28;20501;-84
2021/05/05 06:49:56;;;;;;;34.17;10.23;;;6.10;99.90;;;;;;5083966;28;20527;-84
2021/05/05 06:52:22;;;;;;;22.20;7.23;;;6.00;99.90;;;;;;5091242;28;20478;-85
2021/05/05 06:54:49;;;;;;;30.97;8.83;;;5.80;99.90;;;;;;5079811;28;20458;-84
2021/05/05 06:57:15;;;;;;;22.70;6.80;;;5.60;99.90;;;;;;5079914;28;20454;-87
2021/05/05 06:59:42;;;;;;;24.73;8.17;;;5.50;99.90;;;;;;5088332;28;20446;-85
2021/05/05 07:02:09;;;;;;;19.80;7.23;;;5.50;99.90;;;;;;5092953;28;20480;-85
2021/05/05 07:04:35;;;;;;;26.50;8.47;;;5.50;99.90;;;;;;5100675;28;20504;-85
2021/05/05 07:07:02;;;;;;;23.30;8.70;;;5.60;99.90;;;;;;5099254;28;20418;-86
2021/05/05 07:09:28;;;;;;;27.30;7.97;;;5.60;99.90;;;;;;5096473;28;20426;-85
2021/05/05 07:11:55;;;;;;;21.60;7.27;;;5.80;99.90;;;;;;5093418;28;20481;-84
2021/05/05 07:14:21;;;;;;;23.40;8.20;;;5.80;99.90;;;;;;5091214;28;20454;-84
2021/05/05 07:16:47;;;;;;;24.43;8.13;;;5.70;99.90;;;;;;5095973;28;20461;-84
2021/05/05 07:19:14;;;;;;;23.40;7.10;;;5.70;99.90;;;;;;5097222;28;20537;-85
2021/05/05 07:21:40;;;;;;;17.80;5.47;;;5.90;99.90;;;;;;5097878;28;20509;-84
2021/05/05 07:24:08;;;;;;;15.30;3.60;;;5.90;99.90;;;;;;5087284;28;20924;-85
2021/05/05 07:26:34;;;;;;;21.00;4.57;;;6.10;99.90;;;;;;5092075;28;20977;-83
2021/05/05 07:29:01;;;;;;;18.87;4.50;;;6.20;99.90;;;;;;5097397;28;20464;-87
2021/05/05 07:31:27;;;;;;;17.87;4.30;;;6.40;99.90;;;;;;5097541;28;20546;-84
2021/05/05 07:33:55;;;;;;;18.77;4.87;;;6.60;99.90;;;;;;5097905;28;20429;-83
2021/05/05 07:36:25;;;;;;;17.70;4.50;;;6.80;99.90;;;;;;5098829;28;20460;-85
2021/05/05 07:45:07;;;;;;;22.50;5.37;;;7.80;99.90;;;;;;5096812;28;21010;-82
2021/05/05 07:47:36;;;;;;;22.33;6.30;;;7.90;99.90;;;;;;5094037;28;20827;-85
2021/05/05 07:50:05;;;;;;;19.63;6.20;;;7.80;99.90;;;;;;5097319;28;20453;-83
2021/05/05 07:52:31;;;;;;;23.50;6.90;;;7.80;99.90;;;;;;5089595;28;20531;-83
2021/05/05 07:54:57;;;;;;;21.80;6.47;;;7.60;99.90;;;;;;5090862;28;20449;-83
2021/05/05 07:57:25;;;;;;;23.23;7.07;;;7.50;99.90;;;;;;5094547;28;20536;-85
2021/05/05 07:59:51;;;;;;;20.20;7.10;;;7.40;99.90;;;;;;5096974;28;20588;-83
2021/05/05 08:02:17;;;;;;;24.40;10.80;;;7.30;99.90;;;;;;5094734;28;20501;-84
2021/05/05 08:04:49;;;;;;;20.27;7.60;;;7.10;99.90;;;;;;5087660;28;20583;-83
2021/05/05 08:07:17;;;;;;;19.13;7.27;;;7.00;99.90;;;;;;5090941;28;20485;-83
2021/05/05 08:09:43;;;;;;;25.00;8.20;;;7.30;99.90;;;;;;5088885;28;20463;-83
2021/05/05 08:12:11;;;;;;;24.17;11.10;;;7.80;99.90;;;;;;5067075;28;20472;-84
2021/05/05 08:14:38;;;;;;;21.67;7.43;;;8.10;99.90;;;;;;5095917;28;20575;-84
2021/05/05 08:17:06;;;;;;;23.80;8.70;;;8.10;99.90;;;;;;5094056;28;20446;-84
2021/05/05 08:19:32;;;;;;;55.43;27.73;;;8.20;99.90;;;;;;5093325;28;20521;-83
2021/05/05 08:21:59;;;;;;;26.93;9.90;;;8.50;99.90;;;;;;5093337;28;20515;-83
2021/05/05 08:24:26;;;;;;;23.13;7.27;;;9.30;99.90;;;;;;5089339;28;20558;-82
2021/05/05 08:26:53;;;;;;;28.13;6.80;;;;;;;;;;5085004;28;20542;-82
2021/05/05 08:29:19;;;;;;;25.10;5.57;;;10.60;99.90;;;;;;5093165;28;20541;-82
2021/05/05 08:31:46;;;;;;;25.77;4.93;;;11.20;99.90;;;;;;5090792;28;20553;-82
2021/05/05 08:34:13;;;;;;;28.00;5.13;;;11.60;99.90;;;;;;5091400;28;20438;-82
2021/05/05 08:36:39;;;;;;;23.43;4.73;;;11.60;99.90;;;;;;5082656;28;20454;-81
2021/05/05 08:39:06;;;;;;;26.50;4.50;;;11.20;99.90;;;;;;5085889;28;20449;-82
2021/05/05 08:41:32;;;;;;;22.57;3.83;;;11.00;99.90;;;;;;5091705;28;21292;-81
2021/05/05 08:44:00;;;;;;;24.43;4.90;;;11.00;99.90;;;;;;5090987;28;20561;-80
2021/05/05 08:46:27;;;;;;;30.13;5.97;;;10.70;99.90;;;;;;5093338;28;20898;-81
2021/05/05 08:48:54;;;;;;;27.70;7.50;;;10.70;99.90;;;;;;5091036;28;20449;-81
2021/05/05 08:51:20;;;;;;;60.03;45.73;;;11.70;99.90;;;;;;5087202;28;20507;-81
2021/05/05 08:53:47;;;;;;;35.13;14.37;;;13.10;99.90;;;;;;5075733;28;20891;-81
2021/05/05 08:56:14;;;;;;;99.63;91.23;;;13.90;99.90;;;;;;5088264;28;20438;-81
2021/05/05 08:58:41;;;;;;;475.20;444.17;;;14.80;99.90;;;;;;5093277;28;20474;-80
2021/05/05 09:01:07;;;;;;;261.73;219.90;;;14.80;99.90;;;;;;5095009;28;20454;-84
2021/05/05 09:03:35;;;;;;;213.90;198.63;;;15.90;99.90;;;;;;5095945;28;20458;-83
2021/05/05 09:06:04;;;;;;;477.17;446.77;;;16.20;99.90;;;;;;5088272;28;20493;-82
2021/05/05 09:08:32;;;;;;;658.70;621.97;;;14.80;99.90;;;;;;5096777;28;20453;-83
2021/05/05 09:11:01;;;;;;;327.17;305.17;;;14.20;99.90;;;;;;5094311;28;20442;-83
2021/05/05 09:13:50;;;;;;;1999.90;999.90;;;13.50;99.90;;;;;;5092053;28;20508;-82
2021/05/05 09:16:20;;;;;;;1999.90;999.90;;;13.00;99.90;;;;;;5097120;28;21166;-82
2021/05/05 09:19:09;;;;;;;1999.90;999.90;;;12.60;99.90;;;;;;5094684;28;20446;-83
2021/05/05 09:21:38;;;;;;;149.27;138.57;;;12.20;99.90;;;;;;5094325;28;20500;-83
2021/05/05 09:24:19;;;;;;;136.37;123.87;;;13.10;99.90;;;;;;5096053;28;20461;-83
2021/05/05 09:26:47;;;;;;;50.17;18.00;;;13.00;99.90;;;;;;5093974;28;20441;-83
2021/05/05 09:29:14;;;;;;;227.30;211.47;;;13.40;99.90;;;;;;5093523;28;20454;-81
2021/05/05 09:31:43;;;;;;;755.23;412.50;;;13.20;99.90;;;;;;5095146;28;20897;-82
2021/05/05 09:34:10;;;;;;;289.93;264.50;;;12.60;99.90;;;;;;5089829;28;20442;-83
2021/05/05 09:36:39;;;;;;;1999.90;999.90;;;12.40;99.90;;;;;;5091076;28;20458;-83
2021/05/05 09:39:07;;;;;;;751.77;387.50;;;12.50;99.90;;;;;;5094190;28;20457;-82
2021/05/05 09:41:36;;;;;;;1999.90;999.90;;;12.40;99.90;;;;;;5096378;28;20506;-82
2021/05/05 09:44:04;;;;;;;1366.83;682.80;;;12.20;99.90;;;;;;5093767;28;20453;-82
2021/05/05 09:46:40;;;;;;;1999.90;999.90;;;11.90;99.90;;;;;;5092184;28;20727;-82
2021/05/05 09:49:20;;;;;;;1999.90;999.90;;;11.50;99.90;;;;;;5092536;28;20961;-81
2021/05/05 09:51:50;;;;;;;163.10;141.50;;;11.50;99.90;;;;;;5088145;28;20468;-81
2021/05/05 09:54:24;;;;;;;208.47;189.97;;;11.10;99.90;;;;;;5088799;28;20454;-81
2021/05/05 09:56:51;;;;;;;219.27;201.17;;;11.10;99.90;;;;;;5100530;28;20461;-83
2021/05/05 09:59:19;;;;;;;1999.90;999.90;;;11.40;99.90;;;;;;5102769;28;20510;-82
2021/05/05 10:01:59;;;;;;;1999.90;999.90;;;11.80;99.90;;;;;;5101034;28;21093;-82
2021/05/05 10:04:26;;;;;;;82.17;21.93;;;12.00;99.90;;;;;;5098923;28;20469;-81
2021/05/05 10:06:58;;;;;;;285.77;263.23;;;11.80;99.90;;;;;;5099421;28;20525;-82
2021/05/05 10:09:25;;;;;;;1375.00;698.87;;;11.30;99.90;;;;;;5099980;28;20461;-82
2021/05/05 10:11:51;;;;;;;1999.90;999.90;;;11.20;99.90;;;;;;5089089;28;20486;-83
2021/05/05 10:14:22;;;;;;;380.57;352.37;;;12.00;99.90;;;;;;5177155;22;20493;-86
2021/05/05 10:16:50;;;;;;;255.27;231.67;;;14.00;99.90;;;;;;5102569;28;20483;-86
2021/05/05 10:19:20;;;;;;;10.87;3.03;;;13.70;99.90;;;;;;5107225;28;20452;-84
2021/05/05 10:21:51;;;;;;;10.70;2.90;;;13.60;99.90;;;;;;5103508;28;20544;-82
2021/05/05 10:24:21;;;;;;;46.30;42.33;;;14.10;99.90;;;;;;5100818;28;20647;-83
2021/05/05 10:26:48;;;;;;;10.00;2.70;;;13.90;99.90;;;;;;5101885;28;20508;-87
2021/05/05 10:29:15;;;;;;;7.90;2.87;;;13.30;99.90;;;;;;5101981;28;20488;-86
2021/05/05 10:31:42;;;;;;;9.83;3.30;;;15.30;99.90;;;;;;5102342;28;20513;-85
2021/05/05 10:34:16;;;;;;;8.13;2.20;;;15.10;99.90;;;;;;5099645;28;20485;-83
2021/05/05 10:36:47;;;;;;;5.70;2.20;;;15.80;99.90;;;;;;5103501;28;20492;-82
2021/05/05 10:39:36;;;;;;;6.87;1.93;;;15.50;99.90;;;;;;5104455;28;20482;-84
2021/05/05 10:42:19;;;;;;;5.63;1.90;;;14.50;99.90;;;;;;5092276;28;20464;-86
2021/05/05 10:44:51;;;;;;;6.60;2.20;;;14.10;99.90;;;;;;5097583;28;20489;-84
2021/05/05 10:47:20;;;;;;;9.97;3.53;;;13.90;99.90;;;;;;5103088;28;20470;-83
2021/05/05 10:50:06;;;;;;;13.30;3.10;;;14.50;99.90;;;;;;5083658;28;20873;-82
2021/05/05 10:53:01;;;;;;;17.90;6.50;;;15.00;99.90;;;;;;5091529;28;20450;-82
2021/05/05 10:55:36;;;;;;;8.80;2.53;;;14.00;99.90;;;;;;5098569;28;21126;-84
2021/05/05 10:58:05;;;;;;;1999.90;999.90;;;12.90;99.90;;;;;;5097951;28;20484;-85
2021/05/05 11:00:52;;;;;;;1999.90;999.90;;;11.90;99.90;;;;;;5098706;28;20512;-84
2021/05/05 11:03:54;;;;;;;232.13;212.93;;;11.00;99.90;;;;;;5093199;28;20533;-84
2021/05/05 11:06:43;;;;;;;1999.90;999.90;;;10.70;99.90;;;;;;5082243;28;20478;-84
2021/05/05 11:09:43;;;;;;;1999.90;999.90;;;10.60;99.90;;;;;;5087672;28;20548;-86
2021/05/05 11:12:39;;;;;;;188.13;168.47;;;10.10;99.90;;;;;;5101381;28;20449;-85
2021/05/05 11:15:10;;;;;;;201.23;183.47;;;10.20;99.90;;;;;;5114117;28;20469;-86
2021/05/05 11:17:37;;;;;;;241.57;187.53;;;13.00;99.90;;;;;;5104287;28;20446;-81
2021/05/05 11:20:40;;;;;;;150.30;137.00;;;15.30;99.90;;;;;;5103935;28;20469;-84
2021/05/05 11:23:50;;;;;;;8.60;2.10;;;16.50;99.90;;;;;;5084256;28;20510;-84
2021/05/05 11:26:18;;;;;;;128.20;115.93;;;15.20;99.90;;;;;;5096509;28;20548;-86
2021/05/05 11:28:56;;;;;;;380.67;346.33;;;13.50;99.90;;;;;;5101300;28;20468;-83
2021/05/05 11:31:51;;;;;;;596.53;560.37;;;11.90;99.90;;;;;;5102516;28;20519;-85
2021/05/05 11:34:30;;;;;;;125.10;114.43;;;10.50;99.90;;;;;;5109255;22;20524;-84
2021/05/05 11:37:17;;;;;;;47.77;10.50;;;8.30;99.90;;;;;;5091467;28;20457;-82
2021/05/05 11:39:45;;;;;;;29.87;4.00;;;7.80;99.90;;;;;;5094507;28;20965;-86
2021/05/05 11:42:14;;;;;;;27.20;4.60;;;7.50;99.90;;;;;;5102384;28;20453;-83
2021/05/05 11:44:43;;;;;;;28.87;5.50;;;7.30;99.90;;;;;;5105783;28;20470;-83
2021/05/05 11:47:11;;;;;;;23.90;6.30;;;7.40;99.90;;;;;;5112628;28;20445;-85
2021/05/05 11:49:39;;;;;;;23.60;5.80;;;7.50;99.90;;;;;;5094991;28;20451;-86
2021/05/05 11:52:26;;;;;;;21.03;5.73;;;7.80;99.90;;;;;;5098366;28;20589;-85
2021/05/05 11:54:56;;;;;;;21.50;6.17;;;8.10;99.90;;;;;;5103454;28;21070;-90
2021/05/05 11:57:23;;;;;;;19.70;5.17;;;8.50;99.90;;;;;;5103150;28;20486;-86
2021/05/05 12:00:11;;;;;;;20.50;5.13;;;8.70;99.90;;;;;;5103255;28;20450;-86
2021/05/05 12:02:44;;;;;;;19.13;3.60;;;9.10;99.90;;;;;;5114599;28;20445;-85
2021/05/05 12:05:25;;;;;;;18.80;2.70;;;9.30;99.90;;;;;;5104008;28;20478;-85
2021/05/05 12:08:03;;;;;;;18.77;2.70;;;9.50;99.90;;;;;;5104733;28;20533;-87
2021/05/05 12:10:39;;;;;;;16.73;1.80;;;9.60;99.90;;;;;;5108929;28;20495;-87
2021/05/05 12:13:09;;;;;;;15.27;1.23;;;9.80;99.90;;;;;;5098506;28;20442;-87
2021/05/05 12:15:45;;;;;;;20.20;2.13;;;9.80;99.90;;;;;;5108128;28;20492;-85
2021/05/05 12:18:17;;;;;;;21.53;7.20;;;10.20;99.90;;;;;;5109938;28;20450;-86
2021/05/05 12:20:43;;;;;;;18.50;1.97;;;10.70;99.90;;;;;;5112743;28;20446;-86
2021/05/05 12:23:10;;;;;;;19.60;1.67;;;12.00;99.90;;;;;;5108101;28;20823;-85
2021/05/05 12:25:36;;;;;;;26.60;2.27;;;13.00;99.90;;;;;;5110248;28;20835;-83
2021/05/05 12:28:15;;;;;;;41.47;19.83;;;13.70;99.90;;;;;;5104175;28;20443;-85
2021/05/05 12:31:04;;;;;;;790.33;445.30;;;15.00;99.90;;;;;;5116003;28;20477;-87
2021/05/05 12:33:38;;;;;;;73.03;66.20;;;17.10;99.90;;;;;;5109055;28;20470;-85
2021/05/05 12:36:09;;;;;;;280.87;254.57;;;18.80;99.90;;;;;;5104402;28;20446;-86
2021/05/05 12:38:42;;;;;;;6.80;1.70;;;18.50;99.90;;;;;;5101140;28;20942;-86
2021/05/05 12:41:19;;;;;;;77.43;72.37;;;19.00;99.90;;;;;;5102337;28;20446;-86
2021/05/05 12:43:51;;;;;;;119.17;109.37;;;18.10;99.90;;;;;;5101943;28;20454;-86
2021/05/05 12:46:24;;;;;;;216.33;200.33;;;14.30;99.90;;;;;;5081977;28;20479;-86
2021/05/05 12:48:51;;;;;;;101.63;94.50;;;16.50;99.90;;;;;;5061687;28;20499;-83
2021/05/05 12:51:21;;;;;;;142.30;128.43;;;15.00;99.90;;;;;;5074060;28;20538;-86
2021/05/05 12:53:54;;;;;;;167.13;153.33;;;13.40;99.90;;;;;;5069802;28;20494;-84
2021/05/05 12:56:36;;;;;;;1999.90;999.90;;;12.30;99.90;;;;;;5075007;28;20467;-83
2021/05/05 12:59:03;;;;;;;242.33;224.30;;;11.20;99.90;;;;;;5076544;28;20458;-85
2021/05/05 13:01:31;;;;;;;69.97;46.80;;;11.20;99.90;;;;;;5081459;28;20883;-81
2021/05/05 13:03:58;;;;;;;261.30;245.37;;;10.70;99.90;;;;;;5084303;28;20611;-85
2021/05/05 13:06:40;;;;;;;144.57;132.87;;;10.00;99.90;;;;;;5073060;28;20479;-85
2021/05/05 13:09:17;;;;;;;74.63;54.57;;;9.40;99.90;;;;;;5080190;28;20461;-83
2021/05/05 13:11:46;;;;;;;48.57;6.40;;;8.90;99.90;;;;;;5078056;28;20451;-81
2021/05/05 13:14:18;;;;;;;37.77;3.37;;;8.50;99.90;;;;;;5081731;28;20486;-84